Time;durP1;ratioP1;P1;durP2;ratioP2;P2;SDS_P1;SDS_P2;PMS_P1;PMS_P2;Temp;Humidity;BMP_temperature;BMP_pressure;BME280_temperature;BME280_humidity;BME280_pressure;Samples;Min_cycle;Max_cycle;Signal;HPM_P1;HPM_P2
2023/11/25 00:01:23;;;;;;;2.60;0.90;;;5.40;90.30;;;;;;6203947;28;20053;-81
2023/11/25 00:04:24;;;;;;;5.07;0.85;;;5.40;90.30;;;;;;6206277;28;20487;-80
2023/11/25 00:07:26;;;;;;;4.47;1.42;;;5.30;90.30;;;;;;6205295;28;20531;-79
2023/11/25 00:10:28;;;;;;;5.50;1.40;;;5.30;90.30;;;;;;6213802;28;20430;-79
2023/11/25 00:13:31;;;;;;;0.98;0.85;;;5.20;90.20;;;;;;6219471;28;20049;-80
2023/11/25 00:16:32;;;;;;;2.42;0.70;;;5.00;90.20;;;;;;6210203;28;20058;-82
2023/11/25 00:19:35;;;;;;;4.65;2.30;;;4.90;90.20;;;;;;6216825;28;20053;-80
2023/11/25 00:22:36;;;;;;;4.35;1.55;;;4.80;90.30;;;;;;6222796;28;20058;-80
2023/11/25 00:25:38;;;;;;;3.95;0.80;;;4.70;90.50;;;;;;6213501;28;20054;-79
2023/11/25 00:28:41;;;;;;;9.13;0.98;;;4.80;90.70;;;;;;6221163;28;20050;-80
2023/11/25 00:31:43;;;;;;;1.35;1.00;;;4.90;90.80;;;;;;6239057;28;20045;-79
2023/11/25 00:34:44;;;;;;;11.30;2.75;;;5.00;90.80;;;;;;6224466;28;20327;-79
2023/11/25 00:37:46;;;;;;;10.07;1.42;;;5.00;90.80;;;;;;6237290;28;20041;-79
2023/11/25 00:40:49;;;;;;;1.27;0.88;;;5.10;90.80;;;;;;6221110;28;20052;-79
2023/11/25 00:43:52;;;;;;;2.25;1.10;;;5.10;90.80;;;;;;6222774;28;20527;-79
2023/11/25 00:46:53;;;;;;;4.25;1.95;;;5.20;90.80;;;;;;6212734;28;20459;-80
2023/11/25 00:49:55;;;;;;;7.93;1.88;;;5.10;90.60;;;;;;6214443;28;20447;-80
2023/11/25 00:52:57;;;;;;;2.70;0.93;;;5.00;90.50;;;;;;6238294;28;20708;-80
2023/11/25 00:55:59;;;;;;;1.52;0.80;;;4.90;90.60;;;;;;6216768;28;20291;-79
2023/11/25 00:59:03;;;;;;;3.28;1.25;;;4.70;90.60;;;;;;6209611;28;20125;-79
2023/11/25 01:02:05;;;;;;;10.25;3.25;;;4.60;90.70;;;;;;6207788;28;20050;-80
2023/11/25 01:05:08;;;;;;;6.13;1.95;;;4.50;90.70;;;;;;6208446;28;20539;-80
2023/11/25 01:08:09;;;;;;;7.00;1.85;;;4.40;90.80;;;;;;6208432;28;20046;-79
2023/11/25 01:11:11;;;;;;;4.60;1.15;;;4.20;90.80;;;;;;6214926;28;20053;-80
2023/11/25 01:14:14;;;;;;;3.97;1.15;;;4.10;90.90;;;;;;6225254;28;20049;-80
2023/11/25 01:17:16;;;;;;;4.57;0.98;;;4.00;91.00;;;;;;6232589;28;20046;-81
2023/11/25 01:20:18;;;;;;;2.10;0.90;;;4.00;91.00;;;;;;6222466;28;20052;-79
2023/11/25 01:23:20;;;;;;;7.68;1.92;;;3.90;91.10;;;;;;6223335;28;20042;-85
2023/11/25 01:26:22;;;;;;;4.72;1.30;;;3.80;91.30;;;;;;6229368;28;20047;-81
2023/11/25 01:29:25;;;;;;;5.13;3.60;;;3.70;91.10;;;;;;6239085;28;20042;-81
2023/11/25 01:32:26;;;;;;;4.25;0.82;;;3.70;91.20;;;;;;6237735;28;20052;-80
2023/11/25 01:35:28;;;;;;;8.23;1.55;;;3.60;91.20;;;;;;6239882;28;20057;-81
2023/11/25 01:38:30;;;;;;;4.50;1.23;;;3.60;91.30;;;;;;6254387;28;20526;-82
2023/11/25 01:41:32;;;;;;;2.67;1.20;;;3.50;91.30;;;;;;6234162;28;20061;-81
2023/11/25 01:44:35;;;;;;;3.95;1.05;;;3.40;91.30;;;;;;6231571;28;20054;-81
2023/11/25 01:47:37;;;;;;;3.55;1.70;;;3.30;91.40;;;;;;6217637;28;20114;-81
2023/11/25 01:50:39;;;;;;;3.13;1.27;;;3.30;91.60;;;;;;6207044;28;20046;-81
2023/11/25 01:53:41;;;;;;;1.08;0.90;;;3.30;91.70;;;;;;6243481;28;20045;-81
2023/11/25 01:56:43;;;;;;;3.13;1.27;;;3.40;91.70;;;;;;6233046;28;20054;-81
2023/11/25 01:59:50;;;;;;;8.75;1.05;;;3.40;91.60;;;;;;6227531;28;20053;-82
2023/11/25 02:02:51;;;;;;;2.67;1.13;;;3.30;91.60;;;;;;6227943;28;20061;-81
2023/11/25 02:05:53;;;;;;;6.07;2.05;;;3.30;91.60;;;;;;6230904;28;20046;-81
2023/11/25 02:08:55;;;;;;;6.40;1.60;;;3.20;91.70;;;;;;6219547;28;20137;-79
2023/11/25 02:11:58;;;;;;;6.07;1.52;;;3.20;91.70;;;;;;6237891;28;20046;-80
2023/11/25 02:15:01;;;;;;;3.88;1.38;;;3.20;91.70;;;;;;6241680;28;20053;-81
2023/11/25 02:18:03;;;;;;;2.05;1.02;;;3.20;91.70;;;;;;6221829;28;20070;-81
2023/11/25 02:21:05;;;;;;;3.83;1.88;;;3.10;91.60;;;;;;6230405;28;20053;-81
2023/11/25 02:24:09;;;;;;;3.50;1.58;;;3.00;91.50;;;;;;6220506;28;20531;-82
2023/11/25 02:27:13;;;;;;;5.55;1.50;;;2.80;91.40;;;;;;6227549;28;20049;-81
2023/11/25 02:30:15;;;;;;;6.15;3.97;;;2.70;91.60;;;;;;6243387;28;20052;-81
2023/11/25 02:33:17;;;;;;;2.75;1.10;;;2.60;91.50;;;;;;6241864;28;20051;-81
2023/11/25 02:36:20;;;;;;;5.22;1.17;;;2.50;91.60;;;;;;6227926;28;20045;-81
2023/11/25 02:39:23;;;;;;;3.28;2.63;;;2.40;91.70;;;;;;6249995;28;20049;-81
2023/11/25 02:42:26;;;;;;;2.05;1.13;;;2.30;91.70;;;;;;6218242;28;20046;-81
2023/11/25 02:45:27;;;;;;;5.90;1.48;;;2.20;91.70;;;;;;6241232;28;20037;-81
2023/11/25 02:48:29;;;;;;;4.97;1.38;;;2.10;92.00;;;;;;6233961;28;20060;-81
2023/11/25 02:51:31;;;;;;;6.40;1.48;;;2.10;92.00;;;;;;6239796;28;20053;-81
2023/11/25 02:54:34;;;;;;;5.47;1.27;;;2.10;91.90;;;;;;6229690;28;20041;-81
2023/11/25 02:57:36;;;;;;;4.18;1.98;;;2.00;91.90;;;;;;6244514;28;20101;-81
2023/11/25 03:00:40;;;;;;;2.72;1.10;;;1.90;92.00;;;;;;6246563;28;20056;-81
2023/11/25 03:03:47;;;;;;;2.35;1.15;;;1.80;91.90;;;;;;6219052;28;20046;-81
2023/11/25 03:06:50;;;;;;;;;;;1.70;92.00;;;;;;6244484;28;20050;-80
2023/11/25 03:09:54;;;;;;;6.88;1.60;;;1.70;92.10;;;;;;6222899;28;20038;-81
2023/11/25 03:12:55;;;;;;;3.28;1.70;;;1.60;92.00;;;;;;6221991;28;20067;-80
2023/11/25 03:15:57;;;;;;;6.82;1.48;;;1.50;92.00;;;;;;6209994;28;20052;-80
2023/11/25 03:18:59;;;;;;;2.03;1.80;;;1.40;92.00;;;;;;6212640;28;20042;-80
2023/11/25 03:22:00;;;;;;;4.40;2.03;;;1.30;92.10;;;;;;6222159;28;20418;-81
2023/11/25 03:25:05;;;;;;;2.90;1.20;;;1.20;92.10;;;;;;6235870;28;20424;-80
2023/11/25 03:28:08;;;;;;;8.50;2.33;;;1.10;92.10;;;;;;6240167;28;20045;-80
2023/11/25 03:31:10;;;;;;;7.93;1.90;;;1.00;92.10;;;;;;6216390;28;20050;-80
2023/11/25 03:34:12;;;;;;;3.92;1.35;;;0.90;92.10;;;;;;6220274;28;20049;-80
2023/11/25 03:37:14;;;;;;;7.75;1.98;;;0.80;92.10;;;;;;6233511;28;20044;-80
2023/11/25 03:40:17;;;;;;;4.00;1.35;;;0.70;92.20;;;;;;6215634;28;20042;-80
2023/11/25 03:43:19;;;;;;;2.78;1.58;;;0.60;92.50;;;;;;6211138;28;20496;-80
2023/11/25 03:46:21;;;;;;;4.53;1.95;;;0.60;92.40;;;;;;6210760;28;20045;-80
2023/11/25 03:49:24;;;;;;;7.45;1.95;;;0.60;92.50;;;;;;6211357;28;20081;-80
2023/11/25 03:52:26;;;;;;;3.25;1.27;;;0.60;92.50;;;;;;6237060;28;20057;-80
2023/11/25 03:55:29;;;;;;;3.90;3.00;;;0.60;92.60;;;;;;6236583;28;20052;-80
2023/11/25 03:58:31;;;;;;;2.53;1.67;;;0.70;92.70;;;;;;6228139;28;20054;-80
2023/11/25 04:01:32;;;;;;;8.77;1.60;;;0.70;92.70;;;;;;6234343;28;20046;-80
2023/11/25 04:04:34;;;;;;;3.90;1.92;;;0.80;92.80;;;;;;6204873;28;20058;-80
2023/11/25 04:07:36;;;;;;;4.47;1.33;;;0.80;92.70;;;;;;6236625;28;20618;-80
2023/11/25 04:10:39;;;;;;;4.00;1.55;;;0.80;92.70;;;;;;6243834;28;20418;-80
2023/11/25 04:13:40;;;;;;;4.07;1.73;;;0.80;92.70;;;;;;6220625;28;20067;-80
2023/11/25 04:16:43;;;;;;;4.60;1.55;;;0.80;92.90;;;;;;6222804;28;20050;-81
2023/11/25 04:19:45;;;;;;;4.68;1.50;;;0.80;92.90;;;;;;6212297;28;20053;-80
2023/11/25 04:22:48;;;;;;;9.68;2.13;;;0.90;92.90;;;;;;6210727;28;20046;-80
2023/11/25 04:25:51;;;;;;;3.60;1.45;;;1.00;93.00;;;;;;6228971;28;20583;-80
2023/11/25 04:28:53;;;;;;;7.30;1.80;;;1.00;93.30;;;;;;6226380;28;20052;-80
2023/11/25 04:31:55;;;;;;;6.40;1.20;;;1.10;93.10;;;;;;6218277;28;20104;-81
2023/11/25 04:34:57;;;;;;;4.72;1.83;;;1.20;93.10;;;;;;6220359;28;20038;-80
2023/11/25 04:37:58;;;;;;;4.35;1.60;;;1.20;93.10;;;;;;6226169;28;20046;-80
2023/11/25 04:41:01;;;;;;;6.15;1.83;;;1.30;93.10;;;;;;6229006;28;20046;-80
2023/11/25 04:44:03;;;;;;;6.00;1.40;;;1.30;93.00;;;;;;6206682;28;20524;-80
2023/11/25 04:47:05;;;;;;;7.55;1.58;;;1.30;92.90;;;;;;6233841;28;20083;-79
2023/11/25 04:50:08;;;;;;;4.15;2.22;;;1.20;92.80;;;;;;6225672;28;20124;-80
2023/11/25 04:53:09;;;;;;;2.67;1.17;;;1.20;93.00;;;;;;6218280;28;20048;-80
2023/11/25 04:56:13;;;;;;;15.13;1.88;;;1.20;93.00;;;;;;6234679;28;20045;-80
2023/11/25 04:59:14;;;;;;;10.57;2.97;;;1.30;93.20;;;;;;6217714;28;20048;-80
2023/11/25 05:02:16;;;;;;;2.17;1.33;;;1.40;93.30;;;;;;6219784;28;20049;-81
2023/11/25 05:05:18;;;;;;;6.40;1.50;;;1.50;93.40;;;;;;6232183;28;20141;-79
2023/11/25 05:08:21;;;;;;;13.07;4.03;;;1.50;93.40;;;;;;6241007;28;20049;-80
2023/11/25 05:11:24;;;;;;;7.80;3.90;;;1.60;93.50;;;;;;6225602;28;20050;-80
2023/11/25 05:14:26;;;;;;;7.78;4.13;;;1.70;93.50;;;;;;6234690;28;20050;-80
2023/11/25 05:17:29;;;;;;;11.43;6.95;;;1.90;93.60;;;;;;6216261;28;20042;-80
2023/11/25 05:20:30;;;;;;;10.52;4.22;;;2.00;93.60;;;;;;6211433;28;20071;-80
2023/11/25 05:23:32;;;;;;;9.15;1.95;;;2.00;93.50;;;;;;6205801;28;20066;-80
2023/11/25 05:26:35;;;;;;;12.50;1.92;;;2.10;93.50;;;;;;6205517;28;20038;-80
2023/11/25 05:29:37;;;;;;;9.38;2.78;;;2.20;93.50;;;;;;6237049;28;20045;-80
2023/11/25 05:32:38;;;;;;;6.55;1.70;;;2.20;93.40;;;;;;6213460;28;20714;-80
2023/11/25 05:35:40;;;;;;;5.22;2.97;;;2.30;93.50;;;;;;6229890;28;20415;-80
2023/11/25 05:38:42;;;;;;;3.35;1.70;;;2.40;93.50;;;;;;6222493;28;20333;-80
2023/11/25 05:41:45;;;;;;;9.50;2.35;;;2.40;93.40;;;;;;6219453;28;20314;-80
2023/11/25 05:44:47;;;;;;;9.27;2.65;;;2.40;93.40;;;;;;6216352;28;20081;-80
2023/11/25 05:47:50;;;;;;;5.53;2.35;;;2.50;93.40;;;;;;6241665;28;20064;-80
2023/11/25 05:50:51;;;;;;;3.47;1.42;;;2.50;93.40;;;;;;6220343;28;20047;-80
2023/11/25 05:53:53;;;;;;;3.22;2.55;;;2.50;93.40;;;;;;6224149;28;20127;-80
2023/11/25 05:56:57;;;;;;;7.45;3.22;;;2.60;93.40;;;;;;6218664;28;20042;-79
2023/11/25 05:59:58;;;;;;;9.82;1.75;;;2.60;93.40;;;;;;6206139;28;20077;-80
2023/11/25 06:03:00;;;;;;;31.40;12.73;;;2.60;93.40;;;;;;6216725;28;20046;-80
2023/11/25 06:06:07;;;;;;;4.57;1.33;;;2.60;93.40;;;;;;6225686;28;20037;-79
2023/11/25 06:09:11;;;;;;;13.60;6.37;;;2.60;93.30;;;;;;6216853;28;20678;-80
2023/11/25 06:12:14;;;;;;;3.75;2.00;;;2.70;93.40;;;;;;6223323;28;20430;-79
2023/11/25 06:15:18;;;;;;;11.90;6.55;;;2.70;93.30;;;;;;6220964;28;20122;-78
2023/11/25 06:18:20;;;;;;;7.53;3.38;;;2.70;93.30;;;;;;6220997;28;20038;-78
2023/11/25 06:21:23;;;;;;;7.68;3.80;;;2.80;93.30;;;;;;6229937;28;20042;-78
2023/11/25 06:24:25;;;;;;;4.32;1.85;;;2.80;93.30;;;;;;6221862;28;20046;-78
2023/11/25 06:27:28;;;;;;;9.07;3.13;;;2.80;93.30;;;;;;6228998;28;20042;-78
2023/11/25 06:30:29;;;;;;;5.53;1.58;;;2.80;93.30;;;;;;6235925;28;20056;-78
2023/11/25 06:33:31;;;;;;;7.28;2.67;;;2.80;93.30;;;;;;6229285;28;20047;-79
2023/11/25 06:36:33;;;;;;;7.93;2.60;;;2.90;93.30;;;;;;6221398;28;20061;-78
2023/11/25 06:39:35;;;;;;;15.48;3.10;;;2.90;93.30;;;;;;6214138;28;20049;-78
2023/11/25 06:42:38;;;;;;;5.13;1.30;;;2.90;93.30;;;;;;6229743;28;20077;-79
2023/11/25 06:45:40;;;;;;;10.55;4.40;;;2.90;93.30;;;;;;6229297;28;20045;-79
2023/11/25 06:48:42;;;;;;;9.18;5.68;;;2.90;93.20;;;;;;6221972;28;20127;-78
2023/11/25 06:51:44;;;;;;;45.05;28.33;;;2.90;93.20;;;;;;6228333;28;20054;-78
2023/11/25 06:54:45;;;;;;;17.30;5.18;;;3.00;93.20;;;;;;6222754;28;20050;-78
2023/11/25 06:57:49;;;;;;;7.35;2.03;;;3.00;93.20;;;;;;6235649;28;20046;-79
2023/11/25 07:00:50;;;;;;;2.75;1.70;;;3.00;93.20;;;;;;6226016;28;20042;-78
2023/11/25 07:03:52;;;;;;;5.03;3.67;;;3.10;93.20;;;;;;6225493;28;20050;-77
2023/11/25 07:06:54;;;;;;;8.90;2.03;;;3.00;93.00;;;;;;6221125;28;20042;-78
2023/11/25 07:09:56;;;;;;;3.97;1.60;;;3.00;93.00;;;;;;6226354;28;20049;-78
2023/11/25 07:12:59;;;;;;;7.40;2.15;;;3.00;93.00;;;;;;6229957;28;20131;-78
2023/11/25 07:16:04;;;;;;;6.72;1.52;;;3.00;93.10;;;;;;6230385;28;20411;-78
2023/11/25 07:19:07;;;;;;;5.57;1.50;;;3.00;93.00;;;;;;6210792;28;20049;-79
2023/11/25 07:22:09;;;;;;;7.00;2.50;;;3.00;92.90;;;;;;6229098;28;20085;-79
2023/11/25 07:25:12;;;;;;;14.95;9.65;;;3.00;92.90;;;;;;6228401;28;20042;-79
2023/11/25 07:28:15;;;;;;;13.38;4.05;;;3.00;92.90;;;;;;6237498;28;20067;-79
2023/11/25 07:31:17;;;;;;;5.00;2.03;;;2.90;93.10;;;;;;6247427;28;20057;-79
2023/11/25 07:34:19;;;;;;;7.07;2.30;;;2.80;92.70;;;;;;6212363;28;20046;-79
2023/11/25 07:37:20;;;;;;;6.50;1.35;;;2.80;92.80;;;;;;6236112;28;20041;-79
2023/11/25 07:40:22;;;;;;;10.93;3.15;;;2.80;92.80;;;;;;6230947;28;20513;-79
2023/11/25 07:43:25;;;;;;;7.30;3.47;;;2.80;92.90;;;;;;6255298;28;20038;-79
2023/11/25 07:46:27;;;;;;;6.80;2.47;;;2.80;92.90;;;;;;6224618;28;20038;-79
2023/11/25 07:49:29;;;;;;;6.05;2.20;;;2.90;93.10;;;;;;6231597;28;20052;-80
2023/11/25 07:52:31;;;;;;;8.32;2.83;;;3.10;93.30;;;;;;6230422;28;20057;-79
2023/11/25 07:55:34;;;;;;;9.32;2.75;;;3.30;93.40;;;;;;6223755;28;20046;-81
2023/11/25 07:58:37;;;;;;;12.20;3.78;;;3.50;93.30;;;;;;6231364;28;20053;-81
2023/11/25 08:01:39;;;;;;;4.32;1.60;;;3.70;93.30;;;;;;6224472;28;20046;-81
2023/11/25 08:04:40;;;;;;;4.88;1.77;;;3.80;93.10;;;;;;6237176;28;20053;-81
2023/11/25 08:07:43;;;;;;;5.35;2.25;;;3.90;93.10;;;;;;6229453;28;20129;-79
2023/11/25 08:10:44;;;;;;;14.57;2.65;;;4.00;93.00;;;;;;6227054;28;20049;-81
2023/11/25 08:13:47;;;;;;;11.00;3.83;;;4.10;92.90;;;;;;6229112;28;20056;-80
2023/11/25 08:16:49;;;;;;;16.70;4.47;;;4.10;92.80;;;;;;6219181;28;20042;-80
2023/11/25 08:19:51;;;;;;;13.75;6.05;;;4.10;92.70;;;;;;6223595;28;20196;-80
2023/11/25 08:22:53;;;;;;;18.20;6.03;;;4.20;92.70;;;;;;6226248;28;20049;-80
2023/11/25 08:25:55;;;;;;;13.50;4.38;;;4.40;92.80;;;;;;6223787;28;20097;-81
2023/11/25 08:28:58;;;;;;;16.13;5.72;;;4.70;93.00;;;;;;6226537;28;20442;-80
2023/11/25 08:32:01;;;;;;;8.50;3.22;;;5.10;92.70;;;;;;6223355;28;20052;-81
2023/11/25 08:35:02;;;;;;;6.18;2.28;;;5.20;92.30;;;;;;6228293;28;20049;-79
2023/11/25 08:38:04;;;;;;;12.13;2.45;;;5.50;92.40;;;;;;6224166;28;20535;-83
2023/11/25 08:41:07;;;;;;;8.73;2.67;;;5.60;92.00;;;;;;6228314;28;20126;-81
2023/11/25 08:44:12;;;;;;;10.15;5.05;;;5.50;91.70;;;;;;6174751;28;20107;-79
2023/11/25 08:47:14;;;;;;;9.88;4.53;;;5.40;91.50;;;;;;6244298;22;20773;-82
2023/11/25 08:50:16;;;;;;;8.05;2.72;;;5.30;91.30;;;;;;6234466;28;20422;-83
2023/11/25 08:53:17;;;;;;;7.60;2.65;;;5.20;91.40;;;;;;6239054;28;20057;-81
2023/11/25 08:56:20;;;;;;;5.28;2.58;;;5.20;91.40;;;;;;6230967;28;20498;-82
2023/11/25 08:59:25;;;;;;;9.00;3.00;;;5.30;91.50;;;;;;6239822;28;20053;-81
2023/11/25 09:02:26;;;;;;;7.70;2.78;;;5.50;91.70;;;;;;6231978;28;20049;-83
2023/11/25 09:05:28;;;;;;;8.77;2.70;;;5.60;91.30;;;;;;6233911;28;20422;-83
2023/11/25 09:08:30;;;;;;;11.65;3.55;;;6.00;91.90;;;;;;6227592;28;20147;-83
2023/11/25 09:11:32;;;;;;;13.57;2.58;;;6.30;91.40;;;;;;6233312;28;20529;-80
2023/11/25 09:14:35;;;;;;;21.40;8.77;;;6.50;90.90;;;;;;6232702;28;20038;-80
2023/11/25 09:17:39;;;;;;;8.95;2.70;;;6.50;90.50;;;;;;6231015;28;20053;-82
2023/11/25 09:20:42;;;;;;;21.63;7.25;;;6.40;90.10;;;;;;6238858;28;20072;-81
2023/11/25 09:23:44;;;;;;;12.75;3.70;;;6.20;89.30;;;;;;6236401;28;20046;-80
2023/11/25 09:26:47;;;;;;;11.95;3.22;;;6.10;89.30;;;;;;6243213;28;20057;-81
2023/11/25 09:29:50;;;;;;;15.90;5.47;;;6.10;89.60;;;;;;6228118;28;20057;-82
2023/11/25 09:32:53;;;;;;;16.38;5.43;;;6.20;90.00;;;;;;6234321;28;20490;-81
2023/11/25 09:35:55;;;;;;;10.70;4.20;;;6.10;89.40;;;;;;6234283;28;20144;-82
2023/11/25 09:38:56;;;;;;;8.57;3.15;;;6.20;89.10;;;;;;6234825;28;20057;-82
2023/11/25 09:41:59;;;;;;;11.02;4.00;;;6.20;89.00;;;;;;6236269;28;20037;-80
2023/11/25 09:45:03;;;;;;;14.20;4.32;;;6.10;88.20;;;;;;6233890;28;20502;-82
2023/11/25 09:48:05;;;;;;;12.45;5.25;;;6.00;88.90;;;;;;6238323;28;20057;-83
2023/11/25 09:51:09;;;;;;;10.73;4.45;;;6.00;89.20;;;;;;6246679;28;20049;-84
2023/11/25 09:54:16;;;;;;;16.92;3.75;;;5.90;88.50;;;;;;6211564;28;20143;-81
2023/11/25 09:57:20;;;;;;;20.02;3.97;;;5.80;88.40;;;;;;6238476;28;20049;-83
2023/11/25 10:00:26;;;;;;;8.93;3.20;;;5.90;88.80;;;;;;6241358;28;20041;-82
2023/11/25 10:03:32;;;;;;;11.85;4.72;;;5.90;88.10;;;;;;6231056;28;20045;-83
2023/11/25 10:06:34;;;;;;;13.25;4.00;;;5.90;88.30;;;;;;6227974;28;20041;-81
2023/11/25 10:09:38;;;;;;;16.60;5.32;;;5.90;88.30;;;;;;6231774;28;20080;-81
2023/11/25 10:12:41;;;;;;;19.80;5.50;;;5.80;88.70;;;;;;6233015;28;20049;-82
2023/11/25 10:15:47;;;;;;;15.55;5.47;;;5.70;88.70;;;;;;6232839;28;20049;-82
2023/11/25 10:18:49;;;;;;;15.45;3.95;;;5.70;88.40;;;;;;6236904;28;20133;-80
2023/11/25 10:21:52;;;;;;;14.82;3.28;;;5.70;88.50;;;;;;6244352;28;20048;-82
2023/11/25 10:24:55;;;;;;;16.08;5.93;;;5.60;88.40;;;;;;6235033;28;20052;-83
2023/11/25 10:27:57;;;;;;;16.67;4.25;;;5.60;88.50;;;;;;6230660;28;20045;-81
2023/11/25 10:31:01;;;;;;;12.65;5.88;;;5.60;89.50;;;;;;6232966;28;20458;-78
2023/11/25 10:34:03;;;;;;;10.73;3.03;;;5.60;88.60;;;;;;6232226;28;20052;-82
2023/11/25 10:37:05;;;;;;;14.40;4.63;;;5.50;88.20;;;;;;6231104;28;20042;-81
2023/11/25 10:40:10;;;;;;;11.45;3.38;;;5.40;87.40;;;;;;6230235;28;20052;-82
2023/11/25 10:43:12;;;;;;;13.55;3.63;;;5.40;88.00;;;;;;6230056;28;20053;-82
2023/11/25 10:46:15;;;;;;;18.17;4.63;;;5.40;88.30;;;;;;6225598;28;20053;-79
2023/11/25 10:49:19;;;;;;;15.02;4.10;;;5.40;88.40;;;;;;6228946;28;20049;-84
2023/11/25 10:52:21;;;;;;;14.00;4.88;;;5.30;88.30;;;;;;6228380;28;20405;-77
2023/11/25 10:55:25;;;;;;;8.25;3.50;;;5.30;88.10;;;;;;6227434;28;20418;-77
2023/11/25 10:58:29;;;;;;;10.55;3.75;;;5.20;88.50;;;;;;6233378;28;20042;-82
2023/11/25 11:01:32;;;;;;;15.85;4.38;;;5.20;88.50;;;;;;6230352;28;20049;-80
2023/11/25 11:04:41;;;;;;;12.25;3.30;;;5.20;88.70;;;;;;6227161;28;20049;-78
2023/11/25 11:07:47;;;;;;;8.27;4.00;;;5.10;88.40;;;;;;6241484;28;20580;-81
2023/11/25 11:10:54;;;;;;;17.17;3.95;;;5.10;88.40;;;;;;6226215;28;20057;-81
2023/11/25 11:14:01;;;;;;;11.93;3.67;;;5.10;88.80;;;;;;6219675;28;20070;-82
2023/11/25 11:17:12;;;;;;;12.65;2.95;;;5.10;89.00;;;;;;6226582;28;20502;-81
2023/11/25 11:20:14;;;;;;;20.13;4.68;;;5.10;89.70;;;;;;6229093;28;20506;-78
2023/11/25 11:23:19;;;;;;;8.60;4.20;;;5.10;88.80;;;;;;6240320;28;20044;-82
2023/11/25 11:26:29;;;;;;;18.00;4.38;;;5.20;89.30;;;;;;6230379;28;20498;-80
2023/11/25 11:29:37;;;;;;;11.75;3.95;;;5.20;88.90;;;;;;6241917;28;20037;-79
2023/11/25 11:32:41;;;;;;;11.38;3.05;;;5.30;89.00;;;;;;6229037;28;20518;-82
2023/11/25 11:35:43;;;;;;;12.30;3.97;;;5.30;88.90;;;;;;6241407;28;20049;-82
2023/11/25 11:38:45;;;;;;;12.25;3.40;;;5.30;88.50;;;;;;6243156;28;20045;-80
2023/11/25 11:41:47;;;;;;;9.15;4.03;;;5.40;88.70;;;;;;6250335;28;20045;-83
2023/11/25 11:45:09;;;;;;;21.27;5.45;;;5.40;88.70;;;;;;6242346;28;20490;-83
2023/11/25 11:48:13;;;;;;;16.23;4.03;;;5.50;89.00;;;;;;6220024;28;20050;-82
2023/11/25 11:51:18;;;;;;;11.63;5.13;;;5.50;88.50;;;;;;6234301;28;20426;-82
2023/11/25 11:54:27;;;;;;;17.92;4.15;;;5.60;89.00;;;;;;6234609;28;20042;-81
2023/11/25 11:57:29;;;;;;;15.95;4.10;;;5.60;89.30;;;;;;6250676;28;20097;-82
2023/11/25 12:00:32;;;;;;;16.23;4.22;;;5.60;89.20;;;;;;6229486;28;20050;-83
2023/11/25 12:03:37;;;;;;;10.20;3.20;;;5.60;89.10;;;;;;6231004;28;20069;-82
2023/11/25 12:06:39;;;;;;;26.35;12.73;;;5.60;89.10;;;;;;6241090;28;20160;-81
2023/11/25 12:09:41;;;;;;;11.40;6.65;;;5.60;89.20;;;;;;6234557;28;20045;-81
2023/11/25 12:12:43;;;;;;;23.73;13.32;;;5.70;89.00;;;;;;6234291;28;20399;-83
2023/11/25 12:15:45;;;;;;;8.75;3.90;;;5.60;88.50;;;;;;6235715;28;20056;-82
2023/11/25 12:18:48;;;;;;;13.60;4.57;;;5.60;88.00;;;;;;6231196;28;20125;-83
2023/11/25 12:21:50;;;;;;;19.60;5.68;;;5.60;87.70;;;;;;6222681;28;20049;-81
2023/11/25 12:24:52;;;;;;;15.85;7.97;;;5.60;88.10;;;;;;6220652;28;20045;-84
2023/11/25 12:27:59;;;;;;;8.25;3.42;;;5.60;89.10;;;;;;6231846;28;20038;-83
2023/11/25 12:31:00;;;;;;;16.73;6.05;;;5.70;88.50;;;;;;6231522;28;20053;-83
2023/11/25 12:34:04;;;;;;;14.52;5.75;;;5.70;88.20;;;;;;6234610;28;20057;-79
2023/11/25 12:37:06;;;;;;;11.07;4.65;;;5.70;87.50;;;;;;6240762;28;20038;-78
2023/11/25 12:40:18;;;;;;;15.38;3.90;;;5.70;87.80;;;;;;6248733;28;20094;-79
2023/11/25 12:43:20;;;;;;;12.25;4.65;;;5.70;88.50;;;;;;6252750;28;20061;-79
2023/11/25 12:46:21;;;;;;;15.65;4.93;;;5.70;88.70;;;;;;6238520;28;20132;-83
2023/11/25 12:49:25;;;;;;;11.30;4.22;;;5.80;89.10;;;;;;6238278;28;20731;-83
2023/11/25 12:52:28;;;;;;;14.13;4.30;;;5.80;89.10;;;;;;6251134;28;20053;-82
2023/11/25 12:55:37;;;;;;;15.45;3.67;;;5.70;89.00;;;;;;6230181;28;20499;-83
2023/11/25 12:58:43;;;;;;;15.80;9.00;;;5.70;89.20;;;;;;6230551;28;20129;-81
2023/11/25 13:01:45;;;;;;;12.02;4.80;;;5.80;89.30;;;;;;6247907;28;20105;-81
2023/11/25 13:04:49;;;;;;;17.58;8.30;;;5.80;89.50;;;;;;6242501;28;20046;-79
2023/11/25 13:07:51;;;;;;;24.85;15.40;;;5.80;89.30;;;;;;6241754;28;20070;-81
2023/11/25 13:10:53;;;;;;;16.95;7.70;;;6.00;89.80;;;;;;6241815;28;20118;-81
2023/11/25 13:13:56;;;;;;;18.10;8.63;;;6.10;89.60;;;;;;6239131;28;20052;-80
2023/11/25 13:16:57;;;;;;;26.15;15.43;;;6.30;89.80;;;;;;6239588;28;20057;-81
2023/11/25 13:20:01;;;;;;;12.40;6.57;;;6.30;88.60;;;;;;6238889;28;20049;-80
2023/11/25 13:23:02;;;;;;;11.82;7.13;;;6.20;88.30;;;;;;6240364;28;20378;-80
2023/11/25 13:26:04;;;;;;;12.02;4.40;;;6.20;88.70;;;;;;6241104;28;20046;-81
2023/11/25 13:29:06;;;;;;;12.20;3.83;;;6.10;88.70;;;;;;6235258;28;20395;-81
2023/11/25 13:32:08;;;;;;;11.32;4.88;;;6.00;89.10;;;;;;6235578;28;20395;-80
2023/11/25 13:35:11;;;;;;;9.95;3.58;;;6.00;89.30;;;;;;6227624;28;20056;-81
2023/11/25 13:38:14;;;;;;;20.20;4.60;;;6.00;89.30;;;;;;6226051;28;20045;-81
2023/11/25 13:41:16;;;;;;;8.25;3.25;;;6.00;88.60;;;;;;6228074;28;20117;-81
2023/11/25 13:44:18;;;;;;;16.77;4.10;;;6.00;88.80;;;;;;6239016;28;20061;-80
2023/11/25 13:47:19;;;;;;;12.60;4.93;;;6.10;89.10;;;;;;6236142;28;20046;-82
2023/11/25 13:50:23;;;;;;;8.75;4.13;;;6.10;89.10;;;;;;6234055;28;20049;-82
2023/11/25 13:53:24;;;;;;;15.30;4.38;;;6.10;88.80;;;;;;6230681;28;20060;-81
2023/11/25 13:56:26;;;;;;;11.45;3.83;;;6.10;88.80;;;;;;6232610;28;20057;-82
2023/11/25 13:59:28;;;;;;;9.25;4.35;;;6.20;89.00;;;;;;6228325;28;20060;-81
2023/11/25 14:02:31;;;;;;;22.05;4.78;;;6.20;88.90;;;;;;6226844;28;20046;-82
2023/11/25 14:05:36;;;;;;;7.80;4.30;;;6.30;89.30;;;;;;6231672;28;20053;-82
2023/11/25 14:08:38;;;;;;;8.40;4.30;;;6.30;89.50;;;;;;6230441;28;20050;-82
2023/11/25 14:11:40;;;;;;;9.38;4.43;;;6.30;89.40;;;;;;6236162;28;20050;-82
2023/11/25 14:14:42;;;;;;;14.98;4.25;;;6.20;88.70;;;;;;6227359;28;20057;-82
2023/11/25 14:17:43;;;;;;;8.35;3.50;;;6.20;89.10;;;;;;6227309;28;20052;-82
2023/11/25 14:20:47;;;;;;;11.23;3.50;;;6.20;89.10;;;;;;6235159;28;20061;-81
2023/11/25 14:23:49;;;;;;;4.55;2.60;;;6.20;89.10;;;;;;6227994;28;20046;-80
2023/11/25 14:26:51;;;;;;;4.38;2.70;;;6.10;89.20;;;;;;6227351;28;20159;-79
2023/11/25 14:29:53;;;;;;;7.88;6.90;;;6.10;89.20;;;;;;6241171;28;20057;-81
2023/11/25 14:32:55;;;;;;;6.78;3.45;;;6.10;89.40;;;;;;6221048;28;20498;-81
2023/11/25 14:35:58;;;;;;;9.93;3.58;;;6.10;89.70;;;;;;6237513;28;20049;-82
2023/11/25 14:38:59;;;;;;;6.70;2.70;;;6.10;89.30;;;;;;6227408;28;20046;-80
2023/11/25 14:42:01;;;;;;;4.43;2.65;;;6.00;89.20;;;;;;6231192;28;20060;-80
2023/11/25 14:45:06;;;;;;;15.43;6.88;;;5.90;89.10;;;;;;6231862;28;20058;-79
2023/11/25 14:48:10;;;;;;;6.18;2.10;;;5.90;89.60;;;;;;6243571;28;20078;-79
2023/11/25 14:51:13;;;;;;;11.07;2.03;;;5.80;88.90;;;;;;6241351;28;20050;-79
2023/11/25 14:54:15;;;;;;;17.85;4.57;;;5.80;89.30;;;;;;6242535;28;20109;-79
2023/11/25 14:57:17;;;;;;;5.55;3.70;;;5.70;89.50;;;;;;6239386;28;20176;-81
2023/11/25 15:00:19;;;;;;;2.95;2.55;;;5.70;89.70;;;;;;6237756;28;20053;-81
2023/11/25 15:03:23;;;;;;;5.82;3.17;;;5.70;90.00;;;;;;6235994;28;20088;-80
2023/11/25 15:06:26;;;;;;;3.08;2.47;;;5.70;90.00;;;;;;6235160;28;20042;-80
2023/11/25 15:09:28;;;;;;;7.80;2.92;;;5.70;90.10;;;;;;6237078;28;20072;-81
2023/11/25 15:12:30;;;;;;;2.92;2.03;;;5.70;90.10;;;;;;6240946;28;20064;-80
2023/11/25 15:15:32;;;;;;;5.15;3.95;;;5.70;90.10;;;;;;6242891;28;20052;-79
2023/11/25 15:18:34;;;;;;;6.35;3.42;;;5.70;90.00;;;;;;6221101;22;20047;-81
2023/11/25 15:21:37;;;;;;;29.15;21.05;;;5.70;90.10;;;;;;6177479;28;20054;-79
2023/11/25 15:24:39;;;;;;;59.03;36.67;;;5.70;90.20;;;;;;6189895;28;20060;-80
2023/11/25 15:27:40;;;;;;;29.38;22.67;;;5.70;90.20;;;;;;6198616;28;20054;-78
2023/11/25 15:30:42;;;;;;;8.02;4.90;;;5.70;90.30;;;;;;6198761;28;20042;-80
2023/11/25 15:33:44;;;;;;;9.10;4.68;;;5.80;90.40;;;;;;6196796;28;20043;-79
2023/11/25 15:36:50;;;;;;;2.65;1.70;;;5.80;90.30;;;;;;6200225;28;20046;-80
2023/11/25 15:39:52;;;;;;;4.60;3.83;;;5.80;90.30;;;;;;6196402;28;20042;-79
2023/11/25 15:42:53;;;;;;;6.85;5.93;;;5.80;90.30;;;;;;6193272;28;20495;-79
2023/11/25 15:45:55;;;;;;;4.00;2.80;;;5.80;90.10;;;;;;6189449;28;20046;-78
2023/11/25 15:48:57;;;;;;;14.52;10.13;;;5.80;90.20;;;;;;6202266;28;20043;-80
2023/11/25 15:52:00;;;;;;;1.92;1.50;;;5.70;90.10;;;;;;6203358;28;20046;-81
2023/11/25 15:55:02;;;;;;;4.78;3.67;;;5.80;90.20;;;;;;6202958;28;20488;-80
2023/11/25 15:58:04;;;;;;;4.13;3.55;;;5.70;90.20;;;;;;6193073;28;20069;-79